Time;durP1;ratioP1;P1;durP2;ratioP2;P2;SDS_P1;SDS_P2;PMS_P1;PMS_P2;Temp;Humidity;BMP_temperature;BMP_pressure;BME280_temperature;BME280_humidity;BME280_pressure;Samples;Min_cycle;Max_cycle;Signal;HPM_P1;HPM_P2
2023/11/05 00:01:46;;;;;;;3.00;1.00;;;10.10;99.90;;;;;;5027214;28;20452;-75
2023/11/05 00:04:12;;;;;;;2.23;1.20;;;10.10;99.90;;;;;;5020840;28;20468;-74
2023/11/05 00:06:38;;;;;;;1.47;0.97;;;10.10;99.90;;;;;;5026088;28;20463;-74
2023/11/05 00:09:04;;;;;;;2.67;0.87;;;10.10;99.90;;;;;;5023481;28;20525;-75
2023/11/05 00:11:29;;;;;;;4.80;1.50;;;10.10;99.90;;;;;;5009800;28;20213;-74
2023/11/05 00:13:55;;;;;;;1.10;1.00;;;10.10;99.90;;;;;;5026811;28;20213;-74
2023/11/05 00:16:22;;;;;;;1.97;0.90;;;10.10;99.90;;;;;;5029055;28;20222;-75
2023/11/05 00:18:48;;;;;;;1.57;0.90;;;10.10;99.90;;;;;;5025667;28;20238;-74
2023/11/05 00:21:14;;;;;;;2.07;1.20;;;10.10;99.90;;;;;;5024681;28;20581;-74
2023/11/05 00:23:40;;;;;;;2.53;0.90;;;10.10;99.90;;;;;;5019200;28;20218;-73
2023/11/05 00:26:05;;;;;;;1.27;0.90;;;10.10;99.90;;;;;;4992470;28;20214;-73
2023/11/05 00:28:31;;;;;;;1.33;0.70;;;10.10;99.90;;;;;;4994416;28;20214;-74
2023/11/05 00:30:58;;;;;;;0.87;0.60;;;10.10;99.90;;;;;;5014314;28;20244;-73
2023/11/05 00:33:24;;;;;;;1.30;0.87;;;10.10;99.90;;;;;;5022336;28;20308;-74
2023/11/05 00:35:50;;;;;;;2.20;1.10;;;10.10;99.90;;;;;;5025961;28;20471;-73
2023/11/05 00:38:16;;;;;;;1.23;0.70;;;10.10;99.90;;;;;;5023110;28;20477;-74
2023/11/05 00:40:42;;;;;;;0.83;0.73;;;10.10;99.90;;;;;;5008819;28;20321;-74
2023/11/05 00:43:07;;;;;;;0.70;0.60;;;10.10;99.90;;;;;;5006485;28;20222;-74
2023/11/05 00:45:33;;;;;;;3.63;0.87;;;10.10;99.90;;;;;;5031178;28;20222;-74
2023/11/05 00:47:59;;;;;;;2.33;1.13;;;10.10;99.90;;;;;;4996172;28;20253;-74
2023/11/05 00:50:25;;;;;;;1.00;0.70;;;10.10;99.90;;;;;;5017863;28;20586;-74
2023/11/05 00:52:51;;;;;;;0.70;0.53;;;10.10;99.90;;;;;;4999020;28;20461;-74
2023/11/05 00:55:17;;;;;;;1.40;0.83;;;10.10;99.90;;;;;;5015916;28;20587;-74
2023/11/05 00:57:43;;;;;;;3.00;1.00;;;10.10;99.90;;;;;;5010024;28;20233;-74
2023/11/05 01:00:11;;;;;;;1.00;1.00;;;10.10;99.90;;;;;;5007935;28;20222;-74
2023/11/05 01:02:37;;;;;;;2.10;0.90;;;10.10;99.90;;;;;;5013489;28;20842;-74
2023/11/05 01:05:04;;;;;;;0.83;0.80;;;10.10;99.90;;;;;;5027474;28;20468;-73
2023/11/05 01:07:30;;;;;;;1.37;1.10;;;10.10;99.90;;;;;;5029773;28;20267;-74
2023/11/05 01:09:56;;;;;;;3.33;1.07;;;10.10;99.90;;;;;;5021787;28;20472;-72
2023/11/05 01:12:21;;;;;;;3.03;1.30;;;10.10;99.90;;;;;;5023532;28;20213;-75
2023/11/05 01:14:47;;;;;;;1.47;1.30;;;10.10;99.90;;;;;;5027955;28;20229;-75
2023/11/05 01:17:13;;;;;;;4.07;1.33;;;10.10;99.90;;;;;;5008179;28;20328;-75
2023/11/05 01:19:42;;;;;;;1.90;1.40;;;10.00;99.90;;;;;;5010059;28;20219;-74
2023/11/05 01:22:08;;;;;;;2.93;1.60;;;10.00;99.90;;;;;;5040815;28;21060;-73
2023/11/05 01:24:37;;;;;;;1.10;1.10;;;10.00;99.90;;;;;;5019960;28;20456;-74
2023/11/05 01:27:03;;;;;;;2.20;1.90;;;10.00;99.90;;;;;;5008165;28;20468;-74
2023/11/05 01:29:29;;;;;;;1.50;1.40;;;9.90;99.90;;;;;;5026196;28;20551;-74
2023/11/05 01:31:56;;;;;;;1.50;1.40;;;9.90;99.90;;;;;;5030020;28;20588;-74
2023/11/05 01:34:22;;;;;;;3.53;1.60;;;10.00;99.90;;;;;;5026318;28;20440;-75
2023/11/05 01:36:48;;;;;;;1.80;1.70;;;10.00;99.90;;;;;;5028279;28;20460;-74
2023/11/05 01:39:14;;;;;;;1.40;1.30;;;9.90;99.90;;;;;;5028320;28;20217;-74
2023/11/05 01:41:40;;;;;;;1.03;0.93;;;9.90;99.90;;;;;;5023886;28;20217;-74
2023/11/05 01:44:05;;;;;;;1.17;1.00;;;10.00;99.90;;;;;;4996294;28;20453;-74
2023/11/05 01:46:31;;;;;;;4.63;1.53;;;9.90;99.90;;;;;;5008497;28;20206;-74
2023/11/05 01:48:58;;;;;;;1.07;1.07;;;9.90;99.90;;;;;;5008677;28;20297;-74
2023/11/05 01:51:24;;;;;;;3.40;1.23;;;9.90;99.90;;;;;;4995418;28;20476;-74
2023/11/05 01:53:54;;;;;;;2.40;1.40;;;10.00;99.90;;;;;;5006331;28;20464;-74
2023/11/05 01:56:22;;;;;;;0.80;0.80;;;9.90;99.90;;;;;;5024749;28;20518;-74
2023/11/05 01:58:49;;;;;;;0.97;0.80;;;9.90;99.90;;;;;;5007608;28;20498;-74
2023/11/05 02:01:18;;;;;;;1.00;0.87;;;9.90;99.90;;;;;;4994321;28;20454;-75
2023/11/05 02:03:44;;;;;;;0.90;0.90;;;9.90;99.90;;;;;;5007660;28;20466;-74
2023/11/05 02:06:12;;;;;;;1.47;0.90;;;9.90;99.90;;;;;;5007554;28;20498;-73
2023/11/05 02:08:39;;;;;;;1.93;0.93;;;9.90;99.90;;;;;;5007760;28;20631;-74
2023/11/05 02:11:05;;;;;;;1.10;0.77;;;9.90;99.90;;;;;;5022889;28;20483;-74
2023/11/05 02:13:44;;;;;;;0.90;0.63;;;9.90;99.90;;;;;;5000891;28;20460;-74
2023/11/05 02:16:09;;;;;;;3.47;0.93;;;9.90;99.90;;;;;;5001282;28;20300;-73
2023/11/05 02:18:35;;;;;;;1.63;0.83;;;9.90;99.90;;;;;;5007338;28;20560;-74
2023/11/05 02:21:04;;;;;;;1.00;0.90;;;9.90;99.90;;;;;;4994314;28;20217;-74
2023/11/05 02:23:31;;;;;;;0.90;0.47;;;9.90;99.90;;;;;;4998041;28;20692;-75
2023/11/05 02:25:57;;;;;;;1.13;0.80;;;9.80;99.90;;;;;;4999096;28;20461;-75
2023/11/05 02:28:23;;;;;;;1.50;0.93;;;9.80;99.90;;;;;;4999942;28;20456;-75
2023/11/05 02:30:53;;;;;;;1.30;0.60;;;9.80;99.90;;;;;;5015206;28;20222;-75
2023/11/05 02:33:19;;;;;;;2.10;0.80;;;9.80;99.90;;;;;;5015100;28;20476;-76
2023/11/05 02:35:44;;;;;;;3.43;0.80;;;9.80;99.90;;;;;;5001435;28;20449;-75
2023/11/05 02:38:10;;;;;;;0.70;0.57;;;9.80;99.90;;;;;;5005592;28;20292;-75
2023/11/05 02:40:36;;;;;;;0.80;0.60;;;9.80;99.90;;;;;;4993796;28;20229;-76
2023/11/05 02:43:01;;;;;;;1.27;0.60;;;9.80;99.90;;;;;;4987588;28;20220;-74
2023/11/05 02:45:27;;;;;;;0.93;0.90;;;9.90;99.90;;;;;;5014652;28;20214;-75
2023/11/05 02:47:53;;;;;;;1.70;0.80;;;9.80;99.90;;;;;;5004044;28;20301;-75
2023/11/05 02:50:18;;;;;;;2.57;0.90;;;9.80;99.90;;;;;;5007518;28;20359;-75
2023/11/05 02:52:44;;;;;;;2.27;0.70;;;9.80;99.90;;;;;;5003419;28;20297;-75
2023/11/05 02:55:09;;;;;;;0.73;0.73;;;9.80;99.90;;;;;;5023625;28;20217;-75
2023/11/05 02:57:36;;;;;;;4.83;0.90;;;9.80;99.90;;;;;;5025293;28;20214;-75
2023/11/05 03:00:04;;;;;;;0.70;0.60;;;9.80;99.90;;;;;;5020262;28;20209;-75
2023/11/05 03:02:33;;;;;;;1.70;0.87;;;9.80;99.90;;;;;;4992047;28;20450;-75
2023/11/05 03:04:58;;;;;;;0.70;0.60;;;9.80;99.90;;;;;;5034344;28;20456;-75
2023/11/05 03:07:24;;;;;;;0.60;0.60;;;9.90;99.90;;;;;;5001904;28;20457;-76
2023/11/05 03:09:50;;;;;;;1.27;0.70;;;9.90;99.90;;;;;;5013660;28;20308;-76
2023/11/05 03:12:15;;;;;;;1.30;0.70;;;9.90;99.90;;;;;;4999497;28;20207;-75
2023/11/05 03:14:41;;;;;;;5.40;1.30;;;9.90;99.90;;;;;;5003143;28;20225;-75
2023/11/05 03:17:07;;;;;;;1.33;0.90;;;9.90;99.90;;;;;;5003733;28;20221;-74
2023/11/05 03:19:32;;;;;;;1.90;0.80;;;9.90;99.90;;;;;;5002371;28;20213;-75
2023/11/05 03:21:58;;;;;;;1.80;0.67;;;9.90;99.90;;;;;;5007775;28;20229;-75
2023/11/05 03:24:24;;;;;;;3.37;1.10;;;9.90;99.90;;;;;;5007982;28;20304;-75
2023/11/05 03:26:50;;;;;;;1.73;0.80;;;9.90;99.90;;;;;;5010105;28;20241;-74
2023/11/05 03:29:15;;;;;;;0.87;0.77;;;9.90;99.90;;;;;;5017649;28;20225;-75
2023/11/05 03:31:42;;;;;;;4.70;1.23;;;9.90;99.90;;;;;;5026736;28;20217;-75
2023/11/05 03:34:08;;;;;;;0.80;0.80;;;9.90;99.90;;;;;;5003490;28;20679;-75
2023/11/05 03:36:34;;;;;;;4.70;1.10;;;9.90;99.90;;;;;;5007964;28;20480;-75
2023/11/05 03:39:00;;;;;;;9.93;0.90;;;9.90;99.90;;;;;;5018860;28;20214;-74
2023/11/05 03:41:26;;;;;;;1.23;0.80;;;9.90;99.90;;;;;;5020831;28;20471;-75
2023/11/05 03:43:52;;;;;;;2.53;0.80;;;9.90;99.90;;;;;;5028821;28;20875;-75
2023/11/05 03:46:18;;;;;;;2.97;0.90;;;9.90;99.90;;;;;;5025307;28;20215;-75
2023/11/05 03:48:44;;;;;;;0.70;0.70;;;9.90;99.90;;;;;;5036374;28;20231;-75
2023/11/05 03:51:16;;;;;;;0.70;0.50;;;9.90;99.90;;;;;;5010725;28;20475;-75
2023/11/05 03:53:42;;;;;;;1.03;0.93;;;9.90;99.90;;;;;;5032540;28;20217;-75
2023/11/05 03:56:09;;;;;;;1.33;1.03;;;9.90;99.90;;;;;;5011568;28;20957;-74
2023/11/05 03:58:37;;;;;;;2.10;1.10;;;9.90;99.90;;;;;;5034004;28;20282;-75
2023/11/05 04:01:04;;;;;;;0.43;0.43;;;9.90;99.90;;;;;;5031726;28;20468;-74
2023/11/05 04:03:31;;;;;;;1.93;0.60;;;9.90;99.90;;;;;;5030353;28;20463;-75
2023/11/05 04:05:57;;;;;;;3.53;0.60;;;9.90;99.90;;;;;;5032317;28;20456;-74
2023/11/05 04:08:23;;;;;;;2.50;0.70;;;9.90;99.90;;;;;;5024782;28;20459;-75
2023/11/05 04:10:49;;;;;;;1.30;0.60;;;9.90;99.90;;;;;;5028502;28;20290;-75
2023/11/05 04:13:14;;;;;;;1.00;0.70;;;9.90;99.90;;;;;;5030941;28;20351;-75
2023/11/05 04:15:41;;;;;;;7.03;0.77;;;9.90;99.90;;;;;;5015697;28;20299;-75
2023/11/05 04:18:07;;;;;;;1.90;0.73;;;9.90;99.90;;;;;;5032365;28;20675;-74
2023/11/05 04:20:33;;;;;;;3.50;1.13;;;9.90;99.90;;;;;;5024685;28;20450;-75
2023/11/05 04:22:59;;;;;;;3.27;0.90;;;9.90;99.90;;;;;;5032071;28;20452;-75
2023/11/05 04:25:25;;;;;;;2.43;1.00;;;9.90;99.90;;;;;;5026630;28;20227;-74
2023/11/05 04:27:50;;;;;;;0.67;0.57;;;9.90;99.90;;;;;;5030413;28;20687;-74
2023/11/05 04:30:16;;;;;;;2.30;0.60;;;10.00;99.90;;;;;;5015880;28;20472;-75
2023/11/05 04:32:43;;;;;;;2.07;0.73;;;10.00;99.90;;;;;;5030935;28;20213;-74
2023/11/05 04:35:09;;;;;;;1.27;0.77;;;9.90;99.90;;;;;;5034076;28;20229;-74
2023/11/05 04:37:34;;;;;;;2.10;0.50;;;10.00;99.90;;;;;;5026415;28;20965;-75
2023/11/05 04:40:04;;;;;;;3.33;1.17;;;10.00;99.90;;;;;;5007538;28;20295;-74
2023/11/05 04:42:30;;;;;;;1.33;0.77;;;10.00;99.90;;;;;;4998750;28;20206;-75
2023/11/05 04:44:57;;;;;;;2.40;0.53;;;10.00;99.90;;;;;;5021699;28;21030;-75
2023/11/05 04:47:23;;;;;;;1.37;0.63;;;10.00;99.90;;;;;;5033792;28;20730;-75
2023/11/05 04:49:50;;;;;;;1.63;0.63;;;10.00;99.90;;;;;;5030355;28;20559;-74
2023/11/05 04:52:16;;;;;;;2.70;0.70;;;10.10;99.90;;;;;;5009882;28;20217;-74
2023/11/05 04:54:42;;;;;;;1.93;0.43;;;10.00;99.90;;;;;;5023274;28;20981;-75
2023/11/05 04:57:08;;;;;;;0.60;0.50;;;10.10;99.90;;;;;;5033851;28;20646;-74
2023/11/05 04:59:34;;;;;;;0.80;0.53;;;10.00;99.90;;;;;;5033517;28;20537;-74
2023/11/05 05:02:01;;;;;;;1.80;0.50;;;10.10;99.90;;;;;;5032579;28;20892;-73
2023/11/05 05:04:26;;;;;;;1.00;0.50;;;10.10;99.90;;;;;;5036337;28;20460;-75
2023/11/05 05:06:53;;;;;;;1.03;0.87;;;10.10;99.90;;;;;;5034361;28;20517;-74
2023/11/05 05:09:19;;;;;;;0.80;0.50;;;10.10;99.90;;;;;;5044362;28;20248;-74
2023/11/05 05:11:46;;;;;;;0.83;0.67;;;10.10;99.90;;;;;;5020122;28;20544;-74
2023/11/05 05:14:11;;;;;;;1.47;0.57;;;10.10;99.90;;;;;;5030229;28;21100;-75
2023/11/05 05:16:37;;;;;;;1.03;0.57;;;10.10;99.90;;;;;;5041868;28;20455;-75
2023/11/05 05:19:03;;;;;;;3.93;0.83;;;10.10;99.90;;;;;;5019811;28;20738;-74
2023/11/05 05:21:29;;;;;;;4.77;0.80;;;10.10;99.90;;;;;;5033253;28;20484;-75
2023/11/05 05:23:54;;;;;;;0.83;0.60;;;10.10;99.90;;;;;;5030201;28;20226;-74
2023/11/05 05:26:20;;;;;;;2.83;0.80;;;10.10;99.90;;;;;;5032543;28;20243;-75
2023/11/05 05:28:47;;;;;;;4.73;0.53;;;10.10;99.90;;;;;;5030906;28;20221;-74
2023/11/05 05:31:16;;;;;;;2.40;0.70;;;10.10;99.90;;;;;;5035872;28;20217;-75
2023/11/05 05:33:42;;;;;;;1.60;1.00;;;10.10;99.90;;;;;;5035535;28;20456;-75
2023/11/05 05:36:08;;;;;;;4.90;1.37;;;10.10;99.90;;;;;;5020089;28;20447;-74
2023/11/05 05:38:34;;;;;;;1.13;0.60;;;10.10;99.90;;;;;;5028718;28;21060;-75
2023/11/05 05:41:00;;;;;;;0.67;0.57;;;10.10;99.90;;;;;;5040702;28;20260;-74
2023/11/05 05:43:26;;;;;;;0.50;0.50;;;10.10;99.90;;;;;;5030871;28;20596;-75
2023/11/05 05:45:52;;;;;;;3.33;0.40;;;10.20;99.90;;;;;;5036376;28;20498;-75
2023/11/05 05:48:18;;;;;;;9.60;0.87;;;10.20;99.90;;;;;;5033466;28;20523;-75
2023/11/05 05:50:43;;;;;;;1.33;0.77;;;10.20;99.90;;;;;;5029313;28;20229;-75
2023/11/05 05:53:11;;;;;;;2.00;0.60;;;10.20;99.90;;;;;;5031150;28;20213;-75
2023/11/05 05:55:39;;;;;;;1.63;0.80;;;10.20;99.90;;;;;;5038303;28;20220;-75
2023/11/05 05:58:05;;;;;;;1.10;1.00;;;10.20;99.90;;;;;;5034245;28;20479;-75
2023/11/05 06:00:31;;;;;;;1.23;0.63;;;10.20;99.90;;;;;;5031808;28;20510;-75
2023/11/05 06:02:56;;;;;;;1.37;0.50;;;10.20;99.90;;;;;;5020274;28;20232;-76
2023/11/05 06:05:23;;;;;;;3.97;0.63;;;10.20;99.90;;;;;;5033786;28;20303;-75
2023/11/05 06:07:48;;;;;;;2.93;0.60;;;10.20;99.90;;;;;;5017840;28;20344;-75
2023/11/05 06:10:15;;;;;;;1.13;0.60;;;10.20;99.90;;;;;;5034903;28;20530;-74
2023/11/05 06:12:40;;;;;;;7.17;1.00;;;10.20;99.90;;;;;;5029552;28;20255;-75
2023/11/05 06:15:09;;;;;;;0.73;0.47;;;10.20;99.90;;;;;;5033193;28;20912;-74
2023/11/05 06:17:35;;;;;;;1.00;0.80;;;10.20;99.90;;;;;;5033702;28;20739;-75
2023/11/05 06:20:01;;;;;;;2.80;0.70;;;10.20;99.90;;;;;;5040057;28;20887;-74
2023/11/05 06:22:26;;;;;;;2.50;1.27;;;10.30;99.90;;;;;;5013137;28;20471;-75
2023/11/05 06:24:52;;;;;;;0.60;0.60;;;10.20;99.90;;;;;;5012253;28;20210;-75
2023/11/05 06:27:18;;;;;;;2.13;1.00;;;10.30;99.90;;;;;;5007957;28;20222;-75
2023/11/05 06:29:43;;;;;;;5.50;1.30;;;10.20;99.90;;;;;;5021602;28;20225;-75
2023/11/05 06:32:09;;;;;;;1.30;0.70;;;10.20;99.90;;;;;;5030310;28;20755;-75
2023/11/05 06:34:35;;;;;;;2.40;0.73;;;10.30;99.90;;;;;;5033633;28;20219;-74
2023/11/05 06:37:05;;;;;;;1.80;0.80;;;10.30;99.90;;;;;;5024252;28;20222;-75
2023/11/05 06:39:31;;;;;;;2.33;0.60;;;10.20;99.90;;;;;;5037089;28;20217;-75
2023/11/05 06:41:57;;;;;;;2.20;1.53;;;10.30;99.90;;;;;;5013260;28;20552;-75
2023/11/05 06:44:23;;;;;;;0.47;0.30;;;10.20;99.90;;;;;;5029704;28;21017;-75
2023/11/05 06:46:49;;;;;;;1.73;0.70;;;10.20;99.90;;;;;;5031725;28;20260;-75
2023/11/05 06:49:15;;;;;;;1.97;0.60;;;10.20;99.90;;;;;;5030873;28;20448;-75
2023/11/05 06:51:41;;;;;;;1.63;0.50;;;10.30;99.90;;;;;;5025937;28;20560;-75
2023/11/05 06:54:07;;;;;;;0.70;0.50;;;10.30;99.90;;;;;;5032267;28;20228;-74
2023/11/05 06:56:34;;;;;;;0.47;0.40;;;10.30;99.90;;;;;;5030338;28;20517;-75
2023/11/05 06:59:00;;;;;;;1.40;0.60;;;10.30;99.90;;;;;;5033081;28;20455;-75
2023/11/05 07:01:25;;;;;;;0.67;0.50;;;10.30;99.90;;;;;;5030575;28;20459;-75
2023/11/05 07:03:51;;;;;;;1.07;0.57;;;10.30;99.90;;;;;;5024472;28;20319;-75
2023/11/05 07:06:17;;;;;;;0.50;0.40;;;10.30;99.90;;;;;;4990132;28;20327;-75
2023/11/05 07:08:42;;;;;;;5.70;0.63;;;10.30;99.90;;;;;;5025186;28;20227;-75
2023/11/05 07:11:09;;;;;;;0.80;0.50;;;10.30;99.90;;;;;;5014522;28;20231;-75
2023/11/05 07:13:35;;;;;;;0.77;0.40;;;10.30;99.90;;;;;;5001683;28;20213;-76
2023/11/05 07:16:01;;;;;;;1.40;0.70;;;10.30;99.90;;;;;;5008989;28;20445;-76
2023/11/05 07:18:26;;;;;;;1.93;0.80;;;10.30;99.90;;;;;;5026067;28;20463;-76
2023/11/05 07:20:52;;;;;;;0.40;0.40;;;10.30;99.90;;;;;;5025819;28;20304;-75
2023/11/05 07:23:18;;;;;;;0.60;0.57;;;10.30;99.90;;;;;;5034662;28;20225;-75
2023/11/05 07:25:44;;;;;;;1.50;0.60;;;10.30;99.90;;;;;;5019298;28;20227;-75
2023/11/05 07:28:10;;;;;;;1.07;0.67;;;10.30;99.90;;;;;;5032373;28;20221;-75
2023/11/05 07:30:35;;;;;;;1.07;0.50;;;10.30;99.90;;;;;;5021184;28;20472;-74
2023/11/05 07:33:05;;;;;;;1.90;0.57;;;10.30;99.90;;;;;;5030878;28;20308;-75
2023/11/05 07:35:31;;;;;;;1.27;1.10;;;10.30;99.90;;;;;;5023368;28;20445;-75
2023/11/05 07:37:57;;;;;;;1.10;0.83;;;10.40;99.90;;;;;;5003923;28;20466;-74
2023/11/05 07:40:23;;;;;;;0.80;0.70;;;10.30;99.90;;;;;;5016652;28;20452;-75
2023/11/05 07:42:49;;;;;;;1.63;1.00;;;10.30;99.90;;;;;;5009896;28;20456;-75
2023/11/05 07:45:15;;;;;;;0.60;0.60;;;10.30;99.90;;;;;;5021179;28;20472;-75
2023/11/05 07:47:41;;;;;;;0.90;0.90;;;10.40;99.90;;;;;;5012841;28;20464;-74
2023/11/05 07:50:11;;;;;;;5.80;0.77;;;10.40;99.90;;;;;;5013350;28;20467;-75
2023/11/05 07:52:38;;;;;;;0.70;0.70;;;10.40;99.90;;;;;;5010952;28;20222;-74
2023/11/05 07:55:07;;;;;;;4.40;0.60;;;10.40;99.90;;;;;;5026115;28;20883;-74
2023/11/05 07:57:36;;;;;;;0.73;0.50;;;10.40;99.90;;;;;;5036678;28;20478;-74
2023/11/05 08:00:03;;;;;;;0.83;0.80;;;10.30;99.90;;;;;;5017467;28;20547;-76
2023/11/05 08:02:38;;;;;;;1.37;0.83;;;10.40;99.90;;;;;;5013435;28;20455;-75
2023/11/05 08:05:04;;;;;;;1.03;0.60;;;10.40;99.90;;;;;;5031205;28;20486;-75
2023/11/05 08:07:33;;;;;;;0.57;0.57;;;10.40;99.90;;;;;;5029397;28;20451;-75
2023/11/05 08:09:58;;;;;;;0.50;0.50;;;10.40;99.90;;;;;;5030380;28;20220;-75
2023/11/05 08:12:24;;;;;;;0.60;0.60;;;10.40;99.90;;;;;;5005105;28;20440;-75
2023/11/05 08:14:50;;;;;;;0.47;0.47;;;10.40;99.90;;;;;;5012064;28;20592;-74
2023/11/05 08:17:15;;;;;;;1.10;0.60;;;10.40;99.90;;;;;;5011779;28;20245;-74
2023/11/05 08:19:42;;;;;;;1.10;1.00;;;10.50;99.90;;;;;;5011934;28;20226;-75
2023/11/05 08:22:08;;;;;;;0.53;0.53;;;10.40;99.90;;;;;;5019419;28;20209;-74
2023/11/05 08:24:34;;;;;;;1.57;0.90;;;10.40;99.90;;;;;;5028896;28;20517;-74
2023/11/05 08:27:00;;;;;;;0.57;0.50;;;10.40;99.90;;;;;;5002037;28;20249;-75
2023/11/05 08:29:27;;;;;;;0.80;0.70;;;10.50;99.90;;;;;;5014335;28;20484;-74
2023/11/05 08:31:52;;;;;;;0.83;0.67;;;10.50;99.90;;;;;;5002322;28;20448;-75
2023/11/05 08:34:18;;;;;;;0.47;0.47;;;10.50;99.90;;;;;;4999844;28;20453;-75
2023/11/05 08:36:44;;;;;;;2.00;0.60;;;10.50;99.90;;;;;;5014105;28;20305;-74
2023/11/05 08:39:10;;;;;;;0.40;0.40;;;10.50;99.90;;;;;;5026984;28;20225;-75
2023/11/05 08:41:35;;;;;;;2.10;0.70;;;10.50;99.90;;;;;;5030731;28;20225;-76
2023/11/05 08:44:01;;;;;;;1.40;0.73;;;10.50;99.90;;;;;;5028273;28;20498;-75
2023/11/05 08:46:28;;;;;;;3.77;3.07;;;10.50;99.90;;;;;;5022292;28;20209;-75
2023/11/05 08:48:54;;;;;;;2.13;1.70;;;10.50;99.90;;;;;;5025493;28;20221;-75
2023/11/05 08:51:26;;;;;;;2.10;1.80;;;10.50;99.90;;;;;;5027892;28;20471;-75
2023/11/05 08:53:55;;;;;;;2.10;1.70;;;10.50;99.90;;;;;;5032592;28;20224;-74
2023/11/05 08:56:21;;;;;;;1.10;1.00;;;10.50;99.90;;;;;;5026564;28;20460;-75
2023/11/05 08:58:48;;;;;;;1.07;1.07;;;10.50;99.90;;;;;;5023532;28;20539;-74
2023/11/05 09:01:17;;;;;;;1.17;1.13;;;10.50;99.90;;;;;;5025573;28;20463;-74
2023/11/05 09:03:44;;;;;;;1.97;1.70;;;10.50;99.90;;;;;;5027104;28;20448;-75
2023/11/05 09:06:09;;;;;;;2.60;2.40;;;10.50;99.90;;;;;;5011264;28;20522;-73
2023/11/05 09:08:39;;;;;;;2.17;2.07;;;10.50;99.90;;;;;;5024914;28;20496;-74
2023/11/05 09:11:07;;;;;;;2.73;2.53;;;10.50;99.90;;;;;;5025190;28;20229;-75
2023/11/05 09:13:33;;;;;;;2.30;2.20;;;10.50;99.90;;;;;;5024576;28;21005;-75
2023/11/05 09:15:58;;;;;;;1.20;1.10;;;10.50;99.90;;;;;;5030491;28;20459;-75
2023/11/05 09:18:24;;;;;;;3.90;1.10;;;10.50;99.90;;;;;;5025654;28;20356;-74
2023/11/05 09:20:50;;;;;;;1.07;0.80;;;10.50;99.90;;;;;;5030335;28;20316;-74
2023/11/05 09:23:16;;;;;;;0.70;0.70;;;10.50;99.90;;;;;;5000738;28;20221;-74
2023/11/05 09:25:42;;;;;;;1.50;0.97;;;10.50;99.90;;;;;;4992678;28;20460;-74
2023/11/05 09:28:08;;;;;;;0.60;0.60;;;10.50;99.90;;;;;;5011041;28;20221;-75
2023/11/05 09:30:34;;;;;;;1.13;1.10;;;10.50;99.90;;;;;;5013455;28;20240;-76
2023/11/05 09:33:00;;;;;;;0.93;0.93;;;10.50;99.90;;;;;;5002172;28;20218;-74
2023/11/05 09:35:26;;;;;;;1.17;0.90;;;10.50;99.90;;;;;;5004684;28;20464;-74
2023/11/05 09:37:52;;;;;;;1.10;0.87;;;10.50;99.90;;;;;;5007747;28;20477;-74
2023/11/05 09:40:19;;;;;;;1.20;1.10;;;10.50;99.90;;;;;;4994445;28;20807;-75
2023/11/05 09:43:00;;;;;;;1.90;1.43;;;10.50;99.90;;;;;;4996975;28;20632;-74
2023/11/05 09:45:33;;;;;;;1.27;1.00;;;10.50;99.90;;;;;;5015702;28;20451;-74
2023/11/05 09:48:08;;;;;;;3.23;1.67;;;10.60;99.90;;;;;;5007618;28;20465;-74
2023/11/05 09:50:38;;;;;;;2.47;1.20;;;10.60;99.90;;;;;;5020371;28;20483;-75
2023/11/05 09:53:08;;;;;;;0.80;0.67;;;10.60;99.90;;;;;;5018820;28;20506;-74
2023/11/05 09:55:34;;;;;;;0.50;0.47;;;10.60;99.90;;;;;;5022086;28;20474;-74
2023/11/05 09:58:00;;;;;;;0.80;0.70;;;10.60;99.90;;;;;;5021386;28;20471;-74
2023/11/05 10:00:32;;;;;;;0.53;0.53;;;10.70;99.90;;;;;;5010482;28;20463;-75
2023/11/05 10:03:18;;;;;;;0.70;0.50;;;10.60;99.90;;;;;;5005093;28;20483;-74
2023/11/05 10:05:46;;;;;;;3.80;0.50;;;10.70;99.90;;;;;;5021637;28;20535;-74
2023/11/05 10:08:12;;;;;;;1.70;0.77;;;10.70;99.90;;;;;;5017167;28;20474;-75
2023/11/05 10:10:42;;;;;;;0.90;0.90;;;10.70;99.90;;;;;;5020681;28;20472;-75
2023/11/05 10:13:08;;;;;;;2.57;1.83;;;10.70;99.90;;;;;;5019688;28;20216;-74
2023/11/05 10:15:39;;;;;;;5.53;4.07;;;10.70;99.90;;;;;;5025734;28;20447;-75
2023/11/05 10:18:05;;;;;;;4.93;4.43;;;10.80;99.90;;;;;;5029860;28;20217;-76
2023/11/05 10:20:31;;;;;;;6.53;3.93;;;10.80;99.90;;;;;;5029810;28;20969;-75
2023/11/05 10:23:07;;;;;;;5.17;4.10;;;10.80;99.90;;;;;;5009519;28;20456;-75
2023/11/05 10:25:36;;;;;;;7.50;4.83;;;10.80;99.90;;;;;;5030817;28;20493;-75
2023/11/05 10:28:03;;;;;;;9.80;5.40;;;10.90;99.90;;;;;;5023215;28;20463;-75
2023/11/05 10:30:31;;;;;;;35.30;15.50;;;10.90;99.90;;;;;;5032950;28;20567;-74
2023/11/05 10:32:57;;;;;;;34.40;16.87;;;11.00;99.90;;;;;;5028315;28;20468;-74
2023/11/05 10:35:30;;;;;;;28.40;13.80;;;11.00;99.90;;;;;;5015592;28;20509;-74
2023/11/05 10:37:57;;;;;;;35.33;16.07;;;11.00;99.90;;;;;;5027184;28;20488;-75
2023/11/05 10:40:23;;;;;;;48.73;21.47;;;11.00;99.90;;;;;;5023782;28;20455;-74
2023/11/05 10:42:50;;;;;;;45.37;20.50;;;11.10;99.90;;;;;;5023015;28;20456;-74
2023/11/05 10:45:18;;;;;;;51.73;24.50;;;11.10;99.90;;;;;;5020552;28;20813;-75
2023/11/05 10:47:48;;;;;;;49.97;20.47;;;11.10;99.90;;;;;;5033704;28;21068;-76
2023/11/05 10:50:23;;;;;;;30.80;14.33;;;11.20;99.90;;;;;;5019650;28;20608;-75
2023/11/05 10:52:52;;;;;;;40.37;18.77;;;11.20;99.90;;;;;;5036656;28;20473;-75
2023/11/05 10:55:18;;;;;;;49.80;22.17;;;11.20;99.90;;;;;;5021418;28;20518;-75
2023/11/05 10:57:48;;;;;;;36.13;17.30;;;11.20;99.90;;;;;;5022602;28;20495;-74
2023/11/05 11:00:15;;;;;;;21.90;12.90;;;11.20;99.90;;;;;;5009954;28;20455;-75
2023/11/05 11:02:43;;;;;;;12.07;8.80;;;11.20;99.90;;;;;;5012814;28;20835;-75
2023/11/05 11:05:13;;;;;;;14.77;9.67;;;11.20;99.90;;;;;;5006192;28;20504;-73
2023/11/05 11:07:42;;;;;;;10.13;6.30;;;11.30;99.90;;;;;;5004629;28;20961;-75
2023/11/05 11:10:12;;;;;;;5.70;4.27;;;11.30;99.90;;;;;;5002574;28;20531;-74
2023/11/05 11:12:38;;;;;;;3.53;3.23;;;11.30;99.90;;;;;;5008973;28;20496;-75
2023/11/05 11:15:07;;;;;;;2.93;2.63;;;11.30;99.90;;;;;;5017574;28;20449;-75
2023/11/05 11:17:39;;;;;;;1.80;1.70;;;11.30;99.90;;;;;;5024271;28;20550;-75
2023/11/05 11:20:10;;;;;;;3.33;2.60;;;11.30;99.90;;;;;;5016064;28;20456;-74
2023/11/05 11:22:46;;;;;;;2.43;2.07;;;11.40;99.90;;;;;;5016896;28;20500;-75
2023/11/05 11:25:17;;;;;;;1.60;1.50;;;11.40;99.90;;;;;;5009357;28;20482;-74
2023/11/05 11:27:47;;;;;;;2.10;1.80;;;11.50;99.90;;;;;;5031428;28;20475;-75
2023/11/05 11:30:14;;;;;;;3.17;2.70;;;11.50;99.90;;;;;;5012461;28;20475;-75
2023/11/05 11:32:41;;;;;;;2.07;1.97;;;11.60;99.90;;;;;;5031522;28;20463;-76
2023/11/05 11:35:07;;;;;;;1.80;1.10;;;11.60;99.90;;;;;;5023634;28;20464;-75
2023/11/05 11:37:34;;;;;;;1.53;0.60;;;11.60;99.90;;;;;;5025701;28;20827;-75
2023/11/05 11:40:01;;;;;;;1.13;0.40;;;11.60;99.90;;;;;;5033632;28;20945;-75
2023/11/05 11:42:26;;;;;;;0.60;0.30;;;11.60;99.90;;;;;;5020408;28;20466;-74
2023/11/05 11:44:53;;;;;;;1.17;0.50;;;11.60;99.90;;;;;;5004854;28;20456;-76
2023/11/05 11:47:22;;;;;;;1.00;0.40;;;11.60;99.90;;;;;;5019984;28;20216;-75
2023/11/05 11:49:48;;;;;;;1.77;0.60;;;11.60;99.90;;;;;;5015782;28;20463;-75
2023/11/05 11:52:14;;;;;;;0.60;0.30;;;11.60;99.90;;;;;;5017275;28;20515;-73
2023/11/05 11:54:42;;;;;;;0.97;0.50;;;11.60;99.90;;;;;;5021354;28;20214;-74
2023/11/05 11:57:08;;;;;;;0.40;0.30;;;11.60;99.90;;;;;;5006856;28;20241;-75
2023/11/05 11:59:33;;;;;;;0.47;0.33;;;11.70;99.90;;;;;;5024948;28;20478;-75
2023/11/05 12:02:02;;;;;;;0.57;0.57;;;11.70;99.90;;;;;;5010556;28;20682;-75
2023/11/05 12:04:28;;;;;;;0.40;0.33;;;11.70;99.90;;;;;;5027042;28;20237;-75
2023/11/05 12:06:54;;;;;;;1.23;0.57;;;11.70;99.90;;;;;;5026900;28;20495;-75
2023/11/05 12:09:24;;;;;;;0.87;0.63;;;11.70;99.90;;;;;;5028955;28;20229;-75
2023/11/05 12:11:51;;;;;;;0.50;0.50;;;11.80;99.90;;;;;;5027672;28;20228;-74
2023/11/05 12:14:22;;;;;;;0.83;0.60;;;11.80;99.90;;;;;;5003852;28;20445;-76
2023/11/05 12:16:48;;;;;;;1.17;1.07;;;11.80;99.90;;;;;;5013802;28;20463;-76
2023/11/05 12:19:15;;;;;;;0.70;0.70;;;11.80;99.90;;;;;;5024413;28;20468;-76
2023/11/05 12:21:42;;;;;;;1.47;0.90;;;11.90;99.90;;;;;;5027803;28;20501;-75
2023/11/05 12:24:10;;;;;;;0.70;0.70;;;11.90;99.90;;;;;;5012893;28;20462;-75
2023/11/05 12:26:42;;;;;;;0.80;0.80;;;11.90;99.90;;;;;;5009502;28;20492;-75
2023/11/05 12:29:14;;;;;;;0.97;0.60;;;11.90;99.90;;;;;;5028144;28;20472;-75
2023/11/05 12:31:43;;;;;;;0.80;0.77;;;11.90;99.90;;;;;;5035011;28;20482;-75
2023/11/05 12:34:09;;;;;;;0.97;0.47;;;11.90;99.90;;;;;;5017105;28;20455;-73
2023/11/05 12:36:35;;;;;;;3.27;2.07;;;12.00;99.90;;;;;;5024157;28;20515;-75
2023/11/05 12:39:03;;;;;;;4.93;4.43;;;12.10;99.90;;;;;;5029266;28;20593;-74
2023/11/05 12:41:29;;;;;;;6.00;5.40;;;12.10;99.90;;;;;;5008834;28;20216;-75
2023/11/05 12:43:55;;;;;;;4.70;4.23;;;12.20;99.90;;;;;;5029061;28;20444;-75
2023/11/05 12:46:21;;;;;;;2.13;1.93;;;12.10;99.90;;;;;;5026602;28;21005;-75